Mathilde Maersk — OUJS2 — position and weather

sailwx.info

Track history (hours):
 
Tides and Currents Weather Stations Pressure Air Temp Water Temp Dewpoint Dewpoint Depression Visibility Wind Speed Wind Dir Waves Ship Positions

Mathilde Maersk

Last reported at 2014-Aug-27 10:12 UTC. Time now 2014-Sep-01 21:12 UTC.
Position N 32°03' E 030°52'.

Length 367 m; draft 12.2 m.

Type: Ship (hazmat cat B). MMSI: 220597990.

Date/timePositionNaut miles runAvg speedWind from/ knotsBaromVisibWave heightAir tempDewpointWater temp
2014-Aug-27 10:12N 32°03' E 030°52'1218.6
2014-Aug-27 09:33N 32°06' E 030°39'19417.6
2014-Aug-26 22:33N 33°05' E 027°00'9918.1
2014-Aug-26 17:06N 33°35' E 025°07'1418.1
2014-Aug-26 16:21N 33°40' E 024°52'3918.1
2014-Aug-26 14:11N 33°52' E 024°07'48020.1
2014-Aug-25 14:16N 36°16' E 014°47'1622.0
2014-Aug-25 13:32N 36°21' E 014°28'2222.3
2014-Aug-25 12:33N 36°28' E 014°03'2222.1
2014-Aug-25 11:33N 36°34' E 013°36'2222.1
2014-Aug-25 10:33N 36°42' E 013°10'2222.1
2014-Aug-25 09:33N 36°49' E 012°44'2221.7
2014-Aug-25 08:33N 36°55' E 012°17'2221.7
2014-Aug-25 07:33N 37°03' E 011°53'2221.7
2014-Aug-25 06:33N 37°14' E 011°29'8521.1
2014-Aug-25 02:31N 37°31' E 009°44'2621.7
2014-Aug-25 01:19N 37°25' E 009°12'2121.8
2014-Aug-25 00:21N 37°20' E 008°46'12321.1
2014-Aug-24 18:33N 37°17' E 006°12'16620.1
2014-Aug-24 10:18N 37°13' E 002°44'13119.1
2014-Aug-24 03:26N 36°44' E 000°03'1719.5
2014-Aug-24 02:33N 36°41' W 000°18'2418.9
2014-Aug-24 01:18N 36°36' W 000°47'39918.4
2014-Aug-23 03:33N 36°30' W 009°03'1818.3
2014-Aug-23 02:33N 36°38' W 009°24'1918.2
2014-Aug-23 01:32N 36°54' W 009°35'1818.4
2014-Aug-23 00:33N 37°11' W 009°40'6118.8
2014-Aug-22 21:20N 38°11' W 009°58'  
2014-Aug-20 14:33N 50°24' W 000°19'2117.6
2014-Aug-20 13:23N 50°30' E 000°12'1518.2
2014-Aug-20 12:33N 50°36' E 000°33'1818.5
2014-Aug-20 11:33N 50°47' E 000°57'2017.8
2014-Aug-20 10:25N 51°01' E 001°21'1517.5
2014-Aug-20 09:34N 51°10' E 001°39'1716.5
2014-Aug-20 08:33N 51°23' E 001°57'1615.2
2014-Aug-20 07:29N 51°22' E 002°23'1516.3
2014-Aug-20 06:33N 51°25' E 002°47'1514.5
2014-Aug-20 05:33N 51°23' E 003°10'2 2.3
2014-Aug-20 04:32N 51°21' E 003°11'0 0.0
2014-Aug-20 03:31N 51°21' E 003°11'0 0.0
2014-Aug-20 02:31N 51°21' E 003°11'0 0.0
2014-Aug-20 01:31N 51°21' E 003°11'0 0.0
2014-Aug-20 00:28N 51°21' E 003°11'0 0.0
2014-Aug-19 23:32N 51°21' E 003°11'0 0.0
2014-Aug-19 22:31N 51°21' E 003°11'0 0.0
2014-Aug-19 20:28N 51°21' E 003°11'0 0.0
2014-Aug-19 19:10N 51°21' E 003°11'0 0.0
2014-Aug-19 18:32N 51°21' E 003°11'1 1.3
2014-Aug-19 17:33N 51°22' E 003°11'1211.7
2014-Aug-19 16:33N 51°22' E 002°52'7 7.2
2014-Aug-19 15:33N 51°25' E 002°42'1312.6
2014-Aug-19 14:33N 51°37' E 002°50'1312.8
2014-Aug-19 13:31N 51°45' E 003°07'1211.9
2014-Aug-19 12:33N 51°54' E 003°19'2110.4
2014-Aug-19 10:33N 52°04' E 003°49'1010.2
2014-Aug-19 09:33N 51°59' E 004°03'2 1.9
2014-Aug-19 08:31N 51°57' E 004°02'0 0.0
2014-Aug-19 07:31N 51°57' E 004°02'0 0.0
2014-Aug-19 06:31N 51°57' E 004°02'0 0.0
2014-Aug-19 05:28N 51°57' E 004°02'0 0.0
2014-Aug-19 04:31N 51°57' E 004°02'0 0.0
2014-Aug-19 03:31N 51°57' E 004°02'0 0.0
2014-Aug-19 02:31N 51°57' E 004°02'0 0.0
2014-Aug-19 01:31N 51°57' E 004°02'0 0.0
2014-Aug-19 00:31N 51°57' E 004°02'0 0.0
2014-Aug-18 23:25N 51°57' E 004°02'0 0.0
2014-Aug-18 22:31N 51°57' E 004°02'0 0.0
2014-Aug-18 21:28N 51°57' E 004°02'0 0.0
2014-Aug-18 20:25N 51°57' E 004°02'0 0.0
2014-Aug-18 19:31N 51°57' E 004°02'0 0.0
2014-Aug-18 18:31N 51°57' E 004°02'0 0.0
2014-Aug-18 17:25N 51°57' E 004°02'0 0.0
2014-Aug-18 16:31N 51°57' E 004°02'0 0.0
2014-Aug-18 15:31N 51°57' E 004°02'0 0.0
2014-Aug-18 14:31N 51°57' E 004°02'0 0.0
2014-Aug-18 13:31N 51°57' E 004°02'1 1.1
2014-Aug-18 12:34N 51°58' E 004°04'5 4.7
2014-Aug-18 11:33N 52°00' E 003°57'9 8.7
2014-Aug-18 10:33N 52°05' E 003°45'1211.6
2014-Aug-18 09:33N 52°16' E 003°47'1313.0
2014-Aug-18 08:33N 52°29' E 003°52'1312.6
2014-Aug-18 07:33N 52°41' E 003°56'1212.2
2014-Aug-18 06:33N 52°53' E 003°58'1211.8
2014-Aug-18 05:33N 53°03' E 004°10'1312.6
2014-Aug-18 04:33N 53°12' E 004°25'1313.2
2014-Aug-18 03:32N 53°24' E 004°33'1312.9
2014-Aug-18 02:33N 53°36' E 004°40'1312.4
2014-Aug-18 01:32N 53°48' E 004°46'  
Track history (hours):
 
Tides and Currents Weather Stations Pressure Air Temp Water Temp Dewpoint Dewpoint Depression Visibility Wind Speed Wind Dir Waves Ship Positions

Mathilde Maersk

Last reported at 2014-Aug-27 10:12 UTC. Time now 2014-Sep-01 21:12 UTC.
Position N 32°03' E 030°52'.

Length 367 m; draft 12.2 m.

Type: Ship (hazmat cat B). MMSI: 220597990.

Date/timePositionNaut miles runAvg speedWind from/ knotsBaromVisibWave heightAir tempDewpointWater temp
2014-Aug-27 10:12N 32°03' E 030°52'1218.6
2014-Aug-27 09:33N 32°06' E 030°39'19417.6
2014-Aug-26 22:33N 33°05' E 027°00'9918.1
2014-Aug-26 17:06N 33°35' E 025°07'1418.1
2014-Aug-26 16:21N 33°40' E 024°52'3918.1
2014-Aug-26 14:11N 33°52' E 024°07'48020.1
2014-Aug-25 14:16N 36°16' E 014°47'1622.0
2014-Aug-25 13:32N 36°21' E 014°28'2222.3
2014-Aug-25 12:33N 36°28' E 014°03'2222.1
2014-Aug-25 11:33N 36°34' E 013°36'2222.1
2014-Aug-25 10:33N 36°42' E 013°10'2222.1
2014-Aug-25 09:33N 36°49' E 012°44'2221.7
2014-Aug-25 08:33N 36°55' E 012°17'2221.7
2014-Aug-25 07:33N 37°03' E 011°53'2221.7
2014-Aug-25 06:33N 37°14' E 011°29'8521.1
2014-Aug-25 02:31N 37°31' E 009°44'2621.7
2014-Aug-25 01:19N 37°25' E 009°12'2121.8
2014-Aug-25 00:21N 37°20' E 008°46'12321.1
2014-Aug-24 18:33N 37°17' E 006°12'16620.1
2014-Aug-24 10:18N 37°13' E 002°44'13119.1
2014-Aug-24 03:26N 36°44' E 000°03'1719.5
2014-Aug-24 02:33N 36°41' W 000°18'2418.9
2014-Aug-24 01:18N 36°36' W 000°47'39918.4
2014-Aug-23 03:33N 36°30' W 009°03'1818.3
2014-Aug-23 02:33N 36°38' W 009°24'1918.2
2014-Aug-23 01:32N 36°54' W 009°35'1818.4
2014-Aug-23 00:33N 37°11' W 009°40'6118.8
2014-Aug-22 21:20N 38°11' W 009°58'  
2014-Aug-20 14:33N 50°24' W 000°19'2117.6
2014-Aug-20 13:23N 50°30' E 000°12'1518.2
2014-Aug-20 12:33N 50°36' E 000°33'1818.5
2014-Aug-20 11:33N 50°47' E 000°57'2017.8
2014-Aug-20 10:25N 51°01' E 001°21'1517.5
2014-Aug-20 09:34N 51°10' E 001°39'1716.5
2014-Aug-20 08:33N 51°23' E 001°57'1615.2
2014-Aug-20 07:29N 51°22' E 002°23'1516.3
2014-Aug-20 06:33N 51°25' E 002°47'1514.5
2014-Aug-20 05:33N 51°23' E 003°10'2 2.3
2014-Aug-20 04:32N 51°21' E 003°11'0 0.0
2014-Aug-20 03:31N 51°21' E 003°11'0 0.0
2014-Aug-20 02:31N 51°21' E 003°11'0 0.0
2014-Aug-20 01:31N 51°21' E 003°11'0 0.0
2014-Aug-20 00:28N 51°21' E 003°11'0 0.0
2014-Aug-19 23:32N 51°21' E 003°11'0 0.0
2014-Aug-19 22:31N 51°21' E 003°11'0 0.0
2014-Aug-19 20:28N 51°21' E 003°11'0 0.0
2014-Aug-19 19:10N 51°21' E 003°11'0 0.0
2014-Aug-19 18:32N 51°21' E 003°11'1 1.3
2014-Aug-19 17:33N 51°22' E 003°11'1211.7
2014-Aug-19 16:33N 51°22' E 002°52'7 7.2
2014-Aug-19 15:33N 51°25' E 002°42'1312.6
2014-Aug-19 14:33N 51°37' E 002°50'1312.8
2014-Aug-19 13:31N 51°45' E 003°07'1211.9
2014-Aug-19 12:33N 51°54' E 003°19'2110.4
2014-Aug-19 10:33N 52°04' E 003°49'1010.2
2014-Aug-19 09:33N 51°59' E 004°03'2 1.9
2014-Aug-19 08:31N 51°57' E 004°02'0 0.0
2014-Aug-19 07:31N 51°57' E 004°02'0 0.0
2014-Aug-19 06:31N 51°57' E 004°02'0 0.0
2014-Aug-19 05:28N 51°57' E 004°02'0 0.0
2014-Aug-19 04:31N 51°57' E 004°02'0 0.0
2014-Aug-19 03:31N 51°57' E 004°02'0 0.0
2014-Aug-19 02:31N 51°57' E 004°02'0 0.0
2014-Aug-19 01:31N 51°57' E 004°02'0 0.0
2014-Aug-19 00:31N 51°57' E 004°02'0 0.0
2014-Aug-18 23:25N 51°57' E 004°02'0 0.0
2014-Aug-18 22:31N 51°57' E 004°02'0 0.0
2014-Aug-18 21:28N 51°57' E 004°02'0 0.0
2014-Aug-18 20:25N 51°57' E 004°02'0 0.0
2014-Aug-18 19:31N 51°57' E 004°02'0 0.0
2014-Aug-18 18:31N 51°57' E 004°02'0 0.0
2014-Aug-18 17:25N 51°57' E 004°02'0 0.0
2014-Aug-18 16:31N 51°57' E 004°02'0 0.0
2014-Aug-18 15:31N 51°57' E 004°02'0 0.0
2014-Aug-18 14:31N 51°57' E 004°02'0 0.0
2014-Aug-18 13:31N 51°57' E 004°02'1 1.1
2014-Aug-18 12:34N 51°58' E 004°04'5 4.7
2014-Aug-18 11:33N 52°00' E 003°57'9 8.7
2014-Aug-18 10:33N 52°05' E 003°45'1211.6
2014-Aug-18 09:33N 52°16' E 003°47'1313.0
2014-Aug-18 08:33N 52°29' E 003°52'1312.6
2014-Aug-18 07:33N 52°41' E 003°56'1212.2
2014-Aug-18 06:33N 52°53' E 003°58'1211.8
2014-Aug-18 05:33N 53°03' E 004°10'1312.6
2014-Aug-18 04:33N 53°12' E 004°25'1313.2
2014-Aug-18 03:32N 53°24' E 004°33'1312.9
2014-Aug-18 02:33N 53°36' E 004°40'1312.4
2014-Aug-18 01:32N 53°48' E 004°46'  

Dump ship's entire track history